SBSM/RIA METAR and TAF weather

Enter ICAO airport designator
Station Type Date Time Source
SBSM METAR 2018/12/15 02:00 UTC NOAA

SBSM 150200Z VRB02KT CAVOK 22/19 Q1013


Station Type Date Time Source
SBSM Decoded METAR 2018/12/15 02:00 UTC NOAA

Santa Maria Aero-Porto , Brazil (SBSM) 29-43S 053-42W
Dec 14, 2018 - 09:00 PM EST / 2018.12.15 0200 UTC
Wind: Variable at 2 MPH (2 KT):0
Visibility: greater than 7 mile(s):0
Temperature: 71 F (22 C)
Dew Point: 66 F (19 C)
Relative Humidity: 83%
Pressure (altimeter): 29.91 in. Hg (1013 hPa)
ob: SBSM 150200Z VRB02KT CAVOK 22/19 Q1013
cycle: 2

Station Type Date Time Source
SBSM TAF 2018/12/15 00:27 UTC NOAA

TAF SBSM 142200Z 1500/1512 30011KT 9999 FEW030 TX25/1500Z TN23/1508Z PROB40 1506/1512 8000 RA BKN025
RMK PEB


Example: see airport list